Time;durP1;ratioP1;P1;durP2;ratioP2;P2;SDS_P1;SDS_P2;PMS_P1;PMS_P2;Temp;Humidity;BMP_temperature;BMP_pressure;BME280_temperature;BME280_humidity;BME280_pressure;Samples;Min_cycle;Max_cycle;Signal;HPM_P1;HPM_P2
2022/03/15 00:00:44;;;;;;;;;12.00;8.50;;;;;12.00;56.10;102212.72;5055381;28;45189;-62
2022/03/15 00:03:09;;;;;;;;;11.00;7.75;;;;;11.99;56.20;102206.56;5051352;28;45396;-61
2022/03/15 00:05:35;;;;;;;;;14.00;9.25;;;;;12.00;56.18;102203.00;5049954;28;45573;-62
2022/03/15 00:08:00;;;;;;;;;9.25;6.50;;;;;11.97;56.32;102200.50;5049855;28;46041;-62
2022/03/15 00:10:27;;;;;;;;;10.00;9.00;;;;;11.97;56.50;102203.13;5048911;28;45589;-62
2022/03/15 00:12:54;;;;;;;;;16.00;10.00;;;;;11.95;56.42;102193.56;5047560;28;45376;-62
2022/03/15 00:15:20;;;;;;;;;11.25;8.25;;;;;11.95;56.43;102193.56;5048870;28;45758;-62
2022/03/15 00:17:46;;;;;;;;;11.25;10.75;;;;;11.94;56.45;102186.56;5046231;28;45467;-62
2022/03/15 00:20:18;;;;;;;;;14.50;11.00;;;;;11.91;56.51;102190.19;5041242;28;45435;-62
2022/03/15 00:22:44;;;;;;;;;10.50;10.50;;;;;11.90;56.55;102184.97;5041566;28;45442;-62
2022/03/15 00:25:11;;;;;;;;;16.00;9.75;;;;;11.88;56.63;102187.69;5047472;28;45309;-62
2022/03/15 00:27:38;;;;;;;;;14.25;11.25;;;;;11.86;56.66;102186.91;5061504;28;45534;-62
2022/03/15 00:30:05;;;;;;;;;16.75;10.25;;;;;11.83;56.88;102179.09;5044936;28;45344;-62
2022/03/15 00:32:31;;;;;;;;;13.75;10.00;;;;;11.83;56.71;102180.88;5048249;28;45313;-62
2022/03/15 00:34:57;;;;;;;;;13.25;8.25;;;;;11.79;56.91;102176.63;5047518;28;45324;-62
2022/03/15 00:37:23;;;;;;;;;9.50;8.50;;;;;11.76;56.90;102182.88;5040635;28;45388;-62
2022/03/15 00:39:49;;;;;;;;;13.75;10.00;;;;;11.75;56.76;102183.78;5049194;28;45388;-62
2022/03/15 00:42:15;;;;;;;;;8.75;6.50;;;;;11.73;57.15;102185.66;5041476;28;45385;-62
2022/03/15 00:44:41;;;;;;;;;10.00;9.25;;;;;11.71;56.92;102183.06;5041285;28;45477;-62
2022/03/15 00:47:06;;;;;;;;;14.25;11.50;;;;;11.71;57.07;102184.84;5040706;28;46017;-63
2022/03/15 00:49:32;;;;;;;;;14.75;9.25;;;;;11.69;57.24;102174.38;5041207;28;45257;-62
2022/03/15 00:51:58;;;;;;;;;14.50;10.00;;;;;11.68;56.98;102177.03;5041068;28;45546;-63
2022/03/15 00:54:24;;;;;;;;;13.75;10.25;;;;;11.67;57.24;102175.31;5041335;28;45514;-62
2022/03/15 00:56:51;;;;;;;;;11.75;10.00;;;;;11.68;57.26;102177.91;5041254;28;46182;-62
2022/03/15 00:59:17;;;;;;;;;13.25;9.75;;;;;11.68;57.58;102174.41;5040867;28;45558;-62
2022/03/15 01:01:43;;;;;;;;;9.25;4.00;;;;;11.67;57.53;102168.25;5041110;28;45457;-62
2022/03/15 01:04:09;;;;;;;;;14.00;10.25;;;;;11.69;57.34;102173.47;5047112;28;45368;-61
2022/03/15 01:06:35;;;;;;;;;10.50;9.00;;;;;11.69;57.55;102157.63;5061073;28;45440;-61
2022/03/15 01:09:01;;;;;;;;;10.00;8.00;;;;;11.70;57.22;102162.03;5061240;28;45324;-61
2022/03/15 01:11:27;;;;;;;;;9.50;8.75;;;;;11.71;57.18;102158.44;5061395;28;45491;-61
2022/03/15 01:13:52;;;;;;;;;15.00;11.75;;;;;11.69;57.61;102165.56;5060971;28;45379;-61
2022/03/15 01:16:18;;;;;;;;;9.75;9.75;;;;;11.70;57.40;102162.88;5042731;28;45482;-61
2022/03/15 01:18:44;;;;;;;;;13.00;9.00;;;;;11.70;57.37;102151.47;5023085;28;45250;-61
2022/03/15 01:21:13;;;;;;;;;15.50;11.00;;;;;11.69;57.75;102150.59;5032708;28;45177;-61
2022/03/15 01:23:39;;;;;;;;;13.00;9.25;;;;;11.70;57.69;102149.69;5061078;28;45294;-61
2022/03/15 01:26:05;;;;;;;;;12.00;8.75;;;;;11.73;57.89;102144.25;5060984;28;45263;-61
2022/03/15 01:28:30;;;;;;;;;11.50;10.50;;;;;11.74;57.81;102142.47;5060671;28;45295;-62
2022/03/15 01:30:56;;;;;;;;;10.00;8.75;;;;;11.75;57.52;102136.28;5060852;28;45330;-62
2022/03/15 01:33:23;;;;;;;;;10.50;10.50;;;;;11.75;57.60;102131.00;5060274;28;45399;-62
2022/03/15 01:35:48;;;;;;;;;9.00;9.00;;;;;11.76;57.67;102130.06;5060789;28;45388;-62
2022/03/15 01:38:14;;;;;;;;;15.25;12.25;;;;;11.78;57.42;102135.31;5060538;28;45343;-62
2022/03/15 01:40:40;;;;;;;;;13.00;10.75;;;;;11.77;57.73;102125.63;5047936;28;45223;-62
2022/03/15 01:43:06;;;;;;;;;15.75;10.00;;;;;11.77;57.51;102123.00;5040477;28;45226;-62
2022/03/15 01:45:36;;;;;;;;;9.50;8.25;;;;;11.77;57.33;102108.06;5040427;28;45528;-63
2022/03/15 01:48:03;;;;;;;;;11.50;8.00;;;;;11.78;57.65;102106.25;5040092;28;45261;-63
2022/03/15 01:50:29;;;;;;;;;11.25;8.75;;;;;11.77;57.47;102102.78;5040655;28;45463;-63
2022/03/15 01:52:55;;;;;;;;;10.50;9.00;;;;;11.77;57.47;102100.13;5047511;28;45162;-63
2022/03/15 01:55:21;;;;;;;;;11.00;9.75;;;;;11.77;57.70;102096.59;5060431;28;45369;-63
2022/03/15 01:57:47;;;;;;;;;8.25;6.50;;;;;11.78;57.55;102090.44;5060520;28;45375;-63
2022/03/15 02:00:15;;;;;;;;;5.75;5.50;;;;;11.80;57.47;102092.09;5060607;28;45391;-63
2022/03/15 02:02:40;;;;;;;;;12.00;7.25;;;;;11.83;57.67;102086.69;5042237;28;45451;-63
2022/03/15 02:05:06;;;;;;;;;12.75;7.25;;;;;11.85;57.50;102086.59;5044058;28;45394;-63
2022/03/15 02:07:32;;;;;;;;;8.00;6.25;;;;;11.88;57.77;102091.78;5044057;28;45381;-62
2022/03/15 02:09:57;;;;;;;;;13.25;8.75;;;;;11.90;57.62;102079.34;5043349;28;45398;-62
2022/03/15 02:12:23;;;;;;;;;10.50;7.25;;;;;11.91;57.59;102079.28;5043924;28;45318;-62
2022/03/15 02:14:48;;;;;;;;;10.50;6.00;;;;;11.92;57.54;102078.34;5043444;28;46332;-62
2022/03/15 02:17:14;;;;;;;;;11.75;8.00;;;;;11.93;57.65;102076.59;5043608;28;45243;-62
2022/03/15 02:19:41;;;;;;;;;14.00;8.25;;;;;11.95;57.50;102074.75;5043752;28;45274;-62
2022/03/15 02:22:06;;;;;;;;;6.25;5.00;;;;;11.95;57.80;102074.75;5044042;28;45456;-61
2022/03/15 02:24:34;;;;;;;;;7.00;6.25;;;;;11.96;57.94;102073.81;5043397;28;46075;-62
2022/03/15 02:26:59;;;;;;;;;9.50;5.00;;;;;11.95;58.02;102061.53;5050238;28;45516;-61
2022/03/15 02:29:25;;;;;;;;;7.50;6.00;;;;;12.00;57.71;102059.53;5063711;28;45487;-62
2022/03/15 02:31:51;;;;;;;;;10.75;9.00;;;;;11.98;58.10;102054.31;5063511;28;45656;-62
2022/03/15 02:34:17;;;;;;;;;8.25;6.00;;;;;12.01;58.25;102053.34;5063495;28;46077;-62
2022/03/15 02:36:44;;;;;;;;;8.00;8.00;;;;;12.01;58.11;102046.28;5063705;28;45396;-62
2022/03/15 02:39:10;;;;;;;;;5.50;4.25;;;;;12.02;58.58;102040.06;5063444;28;45384;-62
2022/03/15 02:41:35;;;;;;;;;8.00;8.00;;;;;12.04;58.34;102033.88;5057152;28;45251;-62
2022/03/15 02:44:01;;;;;;;;;5.50;5.00;;;;;12.07;58.56;102039.00;5043469;28;45542;-61
2022/03/15 02:46:31;;;;;;;;;7.50;5.50;;;;;12.08;58.96;102040.72;5043291;28;45270;-62
2022/03/15 02:48:57;;;;;;;;;10.25;7.00;;;;;12.06;58.92;102040.78;5042991;28;45437;-62
2022/03/15 02:51:24;;;;;;;;;10.50;8.50;;;;;12.06;59.44;102037.28;5043391;28;45340;-62
2022/03/15 02:53:54;;;;;;;;;8.00;5.00;;;;;12.05;59.75;102035.56;5042862;28;46137;-62
2022/03/15 02:56:21;;;;;;;;;7.00;5.00;;;;;12.05;59.83;102038.22;5043187;28;45249;-62
2022/03/15 02:58:46;;;;;;;;;5.25;5.25;;;;;12.04;59.98;102032.06;5043257;28;45360;-62
2022/03/15 03:01:12;;;;;;;;;6.00;5.00;;;;;12.06;60.31;102024.09;5043169;28;45373;-62
2022/03/15 03:03:38;;;;;;;;;11.00;6.00;;;;;12.08;60.63;102019.56;5044361;28;45750;-62
2022/03/15 03:06:04;;;;;;;;;5.00;4.50;;;;;12.10;60.86;102018.59;5063390;28;45344;-62
2022/03/15 03:08:30;;;;;;;;;5.25;5.25;;;;;12.11;61.17;102009.75;5063248;28;45322;-62
2022/03/15 03:10:57;;;;;;;;;11.75;8.25;;;;;12.11;61.50;102014.19;5063490;28;45450;-61
2022/03/15 03:13:26;;;;;;;;;5.00;5.00;;;;;12.13;61.66;102009.66;5062773;28;45315;-62
2022/03/15 03:15:56;;;;;;;;;8.75;5.75;;;;;12.13;62.24;102009.66;5062829;28;45364;-62
2022/03/15 03:18:29;;;;;;;;;10.00;5.00;;;;;12.15;62.15;102013.09;5062937;28;45252;-62
2022/03/15 03:20:55;;;;;;;;;9.75;7.75;;;;;12.16;62.37;102009.53;5063032;28;45315;-62
2022/03/15 03:23:21;;;;;;;;;5.50;4.50;;;;;12.18;62.58;102008.53;5062687;28;45432;-61
2022/03/15 03:25:47;;;;;;;;;6.25;6.00;;;;;12.20;62.90;102003.19;5063090;28;45474;-61
2022/03/15 03:28:14;;;;;;;;;10.00;6.00;;;;;12.22;63.05;102012.75;5062896;28;45467;-62
2022/03/15 03:30:45;;;;;;;;;8.25;7.00;;;;;12.23;63.15;102008.31;5062902;28;45495;-61
2022/03/15 03:33:10;;;;;;;;;6.25;4.50;;;;;12.22;63.28;102001.31;5062309;28;45623;-61
2022/03/15 03:35:36;;;;;;;;;11.50;6.00;;;;;12.23;63.76;101997.75;5062934;28;45342;-61
2022/03/15 03:38:02;;;;;;;;;8.50;8.00;;;;;12.24;64.00;102005.63;5062820;28;45517;-61
2022/03/15 03:40:28;;;;;;;;;5.75;5.00;;;;;12.26;64.29;102005.56;5052037;28;45256;-61
2022/03/15 03:42:53;;;;;;;;;6.00;5.75;;;;;12.28;64.38;102007.19;5042239;28;45997;-61
2022/03/15 03:45:19;;;;;;;;;9.75;6.00;;;;;12.30;64.31;102000.03;5042584;28;45265;-61
2022/03/15 03:47:45;;;;;;;;;7.75;7.00;;;;;12.31;64.67;102006.19;5042024;28;45485;-61
2022/03/15 03:50:11;;;;;;;;;5.00;5.00;;;;;12.32;64.73;102004.38;5042425;28;45328;-61
2022/03/15 03:52:36;;;;;;;;;8.25;7.75;;;;;12.30;64.86;102001.81;5042275;28;45447;-62
2022/03/15 03:55:02;;;;;;;;;6.50;6.50;;;;;12.29;64.96;102003.63;5042166;28;45367;-62
2022/03/15 03:57:29;;;;;;;;;9.25;5.75;;;;;12.28;65.42;101996.63;5042300;28;45638;-62
2022/03/15 03:59:54;;;;;;;;;7.50;3.75;;;;;12.29;65.38;102000.97;5042273;28;45213;-62
2022/03/15 04:02:20;;;;;;;;;8.00;8.00;;;;;12.29;65.71;102000.97;5041558;28;45321;-61
2022/03/15 04:04:47;;;;;;;;;11.25;8.25;;;;;12.30;66.02;101992.13;5033248;28;45407;-61
2022/03/15 04:07:12;;;;;;;;;8.25;8.00;;;;;12.29;66.05;101994.84;5062186;28;45355;-62
2022/03/15 04:09:40;;;;;;;;;9.00;6.25;;;;;12.29;66.21;101998.31;5062011;28;45340;-62
2022/03/15 04:12:06;;;;;;;;;10.00;10.00;;;;;12.27;66.61;101992.28;5061907;28;46146;-62
2022/03/15 04:14:35;;;;;;;;;9.75;7.25;;;;;12.27;66.64;101992.28;5062126;28;45479;-61
2022/03/15 04:17:02;;;;;;;;;9.50;8.75;;;;;12.24;66.86;101987.13;5061736;28;45189;-62
2022/03/15 04:19:28;;;;;;;;;8.00;8.00;;;;;12.25;67.14;101994.13;5061921;28;45235;-61
2022/03/15 04:21:54;;;;;;;;;10.00;8.75;;;;;12.25;67.14;101993.28;5061273;28;45939;-62
2022/03/15 04:24:19;;;;;;;;;10.00;8.25;;;;;12.25;67.71;101982.72;5061976;28;45393;-62
2022/03/15 04:26:47;;;;;;;;;11.50;8.50;;;;;12.24;67.43;101987.13;5060973;28;45411;-62
2022/03/15 04:29:12;;;;;;;;;10.25;10.25;;;;;12.25;67.79;101982.72;5061858;28;45428;-62
2022/03/15 04:31:38;;;;;;;;;9.50;9.25;;;;;12.25;67.74;101974.78;5061535;28;46519;-62
2022/03/15 04:34:03;;;;;;;;;6.25;6.25;;;;;12.23;67.75;101985.41;5061690;28;45326;-61
2022/03/15 04:36:30;;;;;;;;;6.00;6.00;;;;;12.26;68.01;101984.41;5060001;28;45443;-62
2022/03/15 04:38:55;;;;;;;;;7.25;7.25;;;;;12.26;68.20;101973.84;5060747;28;45541;-61
2022/03/15 04:41:21;;;;;;;;;9.50;9.00;;;;;12.25;68.21;101974.78;5042706;28;45323;-62
2022/03/15 04:43:47;;;;;;;;;11.75;9.25;;;;;12.25;68.31;101972.16;5041519;28;45503;-62
2022/03/15 04:46:12;;;;;;;;;13.25;8.75;;;;;12.24;68.70;101970.41;5040302;28;45234;-61
2022/03/15 04:48:38;;;;;;;;;9.25;7.00;;;;;12.26;68.63;101971.22;5040923;28;45345;-61
2022/03/15 04:51:03;;;;;;;;;12.00;10.75;;;;;12.25;68.74;101959.78;5039627;28;45851;-62
2022/03/15 04:53:29;;;;;;;;;10.00;9.75;;;;;12.24;68.88;101958.06;5041222;28;45260;-61
2022/03/15 04:55:54;;;;;;;;;11.25;9.00;;;;;12.25;69.11;101962.44;5040186;28;45359;-62
2022/03/15 04:58:20;;;;;;;;;9.00;9.00;;;;;12.24;69.10;101957.19;5040718;28;45249;-62
2022/03/15 05:00:45;;;;;;;;;9.75;7.50;;;;;12.25;69.28;101961.56;5040981;28;46192;-62
2022/03/15 05:03:11;;;;;;;;;6.75;6.25;;;;;12.24;69.24;101958.06;5033733;28;45708;-62
2022/03/15 05:05:37;;;;;;;;;5.25;5.25;;;;;12.22;69.34;101969.63;5061251;28;45266;-62
2022/03/15 05:08:03;;;;;;;;;8.50;5.00;;;;;12.21;69.50;101965.28;5061454;28;45450;-62
2022/03/15 05:13:14;;;;;;;;;10.25;9.00;;;;;12.17;69.86;101966.34;5061116;28;45375;-61
2022/03/15 05:15:39;;;;;;;;;13.00;9.00;;;;;12.18;69.99;101957.50;5061092;28;45275;-61
2022/03/15 05:18:05;;;;;;;;;8.25;7.25;;;;;12.20;69.80;101951.22;5061162;28;45498;-61
2022/03/15 05:20:31;;;;;;;;;10.50;9.25;;;;;12.23;70.09;101948.41;5060928;28;45328;-61
2022/03/15 05:22:57;;;;;;;;;9.50;7.00;;;;;12.24;70.14;101951.91;5061289;28;45219;-61
2022/03/15 05:25:22;;;;;;;;;9.75;8.00;;;;;12.26;70.22;101953.56;5061228;28;45249;-61
2022/03/15 05:27:48;;;;;;;;;7.75;6.00;;;;;12.29;70.22;101955.19;5056457;28;45699;-61
2022/03/15 05:30:14;;;;;;;;;10.00;9.25;;;;;12.30;70.49;101949.84;5048308;28;46169;-61
2022/03/15 05:32:40;;;;;;;;;9.25;7.25;;;;;12.30;70.41;101946.34;5047669;28;45710;-62
2022/03/15 05:35:06;;;;;;;;;8.25;8.25;;;;;12.28;70.66;101956.13;5049040;28;45451;-62
2022/03/15 05:37:32;;;;;;;;;12.50;10.75;;;;;12.28;70.46;101957.00;5049704;28;45669;-61
2022/03/15 05:39:58;;;;;;;;;10.50;9.00;;;;;12.28;70.36;101953.50;5051197;28;46153;-63
2022/03/15 05:42:24;;;;;;;;;11.00;9.00;;;;;12.29;70.70;101963.13;5040818;28;45464;-62
2022/03/15 05:44:49;;;;;;;;;14.00;10.25;;;;;12.30;70.59;101963.03;5040542;28;45353;-62
2022/03/15 05:47:15;;;;;;;;;12.00;10.25;;;;;12.30;70.97;101957.75;5040402;28;45261;-62
2022/03/15 05:49:40;;;;;;;;;10.50;6.25;;;;;12.31;70.91;101958.63;5040418;28;45313;-62
2022/03/15 05:52:08;;;;;;;;;12.50;10.50;;;;;12.29;70.85;101957.84;5040531;28;45261;-61
2022/03/15 05:54:34;;;;;;;;;10.50;10.00;;;;;12.32;70.80;101970.03;5040346;28;45395;-62
2022/03/15 05:56:59;;;;;;;;;16.00;13.25;;;;;12.32;70.92;101978.81;5040748;28;45404;-62
2022/03/15 05:59:25;;;;;;;;;10.50;9.00;;;;;12.32;71.03;101968.25;5040380;28;45313;-62
2022/03/15 06:01:51;;;;;;;;;13.75;12.75;;;;;12.33;71.15;101969.16;5040093;28;45536;-62
2022/03/15 06:04:17;;;;;;;;;14.75;12.00;;;;;12.33;71.32;101967.34;5046893;28;45285;-62
2022/03/15 06:06:43;;;;;;;;;12.25;10.50;;;;;12.31;71.20;101969.19;5060327;28;45478;-62
2022/03/15 06:09:08;;;;;;;;;19.25;13.25;;;;;12.32;71.33;101973.53;5059976;28;47409;-62
2022/03/15 06:11:34;;;;;;;;;19.00;16.00;;;;;12.31;71.58;101979.75;5060321;28;45374;-62
2022/03/15 06:14:00;;;;;;;;;14.75;12.25;;;;;12.30;71.56;101976.25;5060350;28;45246;-62
2022/03/15 06:16:26;;;;;;;;;14.25;10.75;;;;;12.32;71.70;101986.75;5060484;28;45312;-62
2022/03/15 06:18:51;;;;;;;;;15.50;14.75;;;;;12.28;71.42;101980.75;5060101;28;45326;-62
2022/03/15 06:21:18;;;;;;;;;15.75;13.00;;;;;12.27;71.69;101979.06;5059831;28;45490;-62
2022/03/15 06:23:43;;;;;;;;;17.75;13.50;;;;;12.25;72.03;101974.78;5060251;28;45384;-62
2022/03/15 06:26:09;;;;;;;;;15.75;13.50;;;;;12.22;71.95;101975.75;5050313;28;45322;-62
2022/03/15 06:28:36;;;;;;;;;16.00;14.50;;;;;12.24;72.09;101980.97;5059795;28;45549;-61
2022/03/15 06:31:02;;;;;;;;;16.50;14.25;;;;;12.25;72.11;101977.44;5041960;28;45506;-61
2022/03/15 06:33:28;;;;;;;;;14.75;14.75;;;;;12.23;72.25;101963.41;5039826;28;45324;-62
2022/03/15 06:35:54;;;;;;;;;15.75;13.50;;;;;12.22;72.00;101970.47;5050448;28;45369;-62
2022/03/15 06:38:19;;;;;;;;;21.75;17.50;;;;;12.19;72.25;101970.63;5042180;28;45929;-61
2022/03/15 06:40:46;;;;;;;;;15.75;15.25;;;;;12.16;72.53;101972.53;5051128;28;45282;-61
2022/03/15 06:43:13;;;;;;;;;16.50;16.50;;;;;12.14;72.55;101972.63;5045291;28;45262;-61
2022/03/15 06:45:42;;;;;;;;;20.50;15.25;;;;;12.16;72.86;101972.53;5044740;28;45444;-61
2022/03/15 06:48:08;;;;;;;;;22.00;16.50;;;;;12.17;72.69;101974.28;5042951;28;45518;-61
2022/03/15 06:50:35;;;;;;;;;21.25;16.00;;;;;12.17;72.59;101972.50;5045621;28;45564;-61
2022/03/15 06:53:01;;;;;;;;;17.75;16.75;;;;;12.17;72.81;101967.22;5056088;28;45366;-61
2022/03/15 06:55:27;;;;;;;;;16.00;14.50;;;;;12.16;72.94;101970.75;5054956;28;45439;-62
2022/03/15 06:57:52;;;;;;;;;15.50;14.75;;;;;12.18;72.88;101970.72;5062594;28;45325;-62
2022/03/15 07:00:18;;;;;;;;;18.25;17.50;;;;;12.17;73.18;101967.22;5062209;28;45547;-62
2022/03/15 07:02:44;;;;;;;;;21.25;17.00;;;;;12.18;72.98;101962.78;5061288;28;45377;-62
2022/03/15 07:05:10;;;;;;;;;19.75;18.75;;;;;12.21;73.08;101965.28;5042665;28;45338;-62
2022/03/15 07:07:36;;;;;;;;;24.25;17.75;;;;;12.22;72.96;101956.41;5042364;28;46024;-60
2022/03/15 07:10:05;;;;;;;;;18.25;16.50;;;;;12.21;72.84;101960.00;5042187;28;45320;-60
2022/03/15 07:12:32;;;;;;;;;18.75;16.00;;;;;12.21;72.65;101962.63;5044917;28;45361;-60
2022/03/15 07:14:57;;;;;;;;;17.25;16.50;;;;;12.19;72.67;101967.13;5048182;28;45599;-61
2022/03/15 07:17:23;;;;;;;;;22.25;20.00;;;;;12.19;72.88;101967.13;5056436;28;46255;-61
2022/03/15 07:19:48;;;;;;;;;19.50;17.50;;;;;12.20;72.76;101972.34;5045451;28;45301;-61
2022/03/15 07:22:14;;;;;;;;;20.75;18.25;;;;;12.18;72.66;101976.00;5042387;28;45424;-61
2022/03/15 07:24:39;;;;;;;;;22.50;21.00;;;;;12.19;72.96;101977.69;5037819;28;45516;-61
2022/03/15 07:27:05;;;;;;;;;22.00;19.25;;;;;12.22;73.01;101980.19;5062703;28;46016;-61
2022/03/15 07:29:31;;;;;;;;;22.00;20.00;;;;;12.25;72.77;101977.44;5062510;28;45330;-61
2022/03/15 07:31:56;;;;;;;;;19.50;17.75;;;;;12.27;72.78;101978.19;5048126;28;45269;-61
2022/03/15 07:34:22;;;;;;;;;20.25;18.75;;;;;12.27;72.83;101970.28;5044064;28;45500;-61
2022/03/15 07:36:48;;;;;;;;;19.25;18.00;;;;;12.29;72.87;101978.97;5042457;28;45399;-61
2022/03/15 07:39:14;;;;;;;;;27.25;17.75;;;;;12.31;72.73;101990.31;5044821;28;45430;-61
2022/03/15 07:41:39;;;;;;;;;23.75;19.00;;;;;12.34;72.76;101992.84;5042367;28;45364;-60
2022/03/15 07:44:07;;;;;;;;;22.00;19.25;;;;;12.35;72.60;101975.19;5041816;28;45461;-60
2022/03/15 07:46:33;;;;;;;;;22.75;21.25;;;;;12.34;72.73;101984.06;5042135;28;45256;-60
2022/03/15 07:48:59;;;;;;;;;28.25;19.00;;;;;12.34;72.77;101968.22;5041739;28;45297;-60
2022/03/15 07:51:25;;;;;;;;;25.25;20.50;;;;;12.31;72.88;101963.91;5042304;28;45317;-60
2022/03/15 07:53:51;;;;;;;;;24.00;22.75;;;;;12.32;72.87;101970.03;5041728;28;45487;-60
2022/03/15 07:56:17;;;;;;;;;25.00;19.25;;;;;12.33;72.87;101964.72;5042000;28;45919;-60
2022/03/15 07:58:43;;;;;;;;;21.00;19.00;;;;;12.36;72.45;101955.78;5041577;28;45321;-60
2022/03/15 08:01:08;;;;;;;;;24.75;19.50;;;;;12.37;72.87;101953.06;5040549;28;45305;-60
2022/03/15 08:03:34;;;;;;;;;22.00;19.25;;;;;12.41;72.84;101957.28;5041952;28;45306;-60
2022/03/15 08:06:00;;;;;;;;;25.25;21.00;;;;;12.44;72.75;101969.47;5061875;28;45403;-60
2022/03/15 08:08:25;;;;;;;;;22.75;20.00;;;;;12.45;72.61;101964.13;5061783;28;45308;-60
2022/03/15 08:10:51;;;;;;;;;25.25;22.50;;;;;12.46;72.56;101959.69;5062350;28;45323;-60
2022/03/15 08:13:16;;;;;;;;;23.50;20.75;;;;;12.45;72.23;101955.34;5062321;28;45218;-60
2022/03/15 08:15:42;;;;;;;;;24.25;20.75;;;;;12.44;72.44;101962.41;5061865;28;45497;-60
2022/03/15 08:18:07;;;;;;;;;24.75;22.00;;;;;12.46;72.50;101960.53;5061840;28;45200;-59
2022/03/15 08:20:33;;;;;;;;;25.00;23.00;;;;;12.47;72.79;101956.97;5061902;28;45238;-59
2022/03/15 08:23:00;;;;;;;;;27.75;24.25;;;;;12.45;72.70;101956.19;5062360;28;45212;-60
2022/03/15 08:25:26;;;;;;;;;23.75;20.25;;;;;12.45;72.87;101953.53;5061681;28;45387;-60
2022/03/15 08:27:52;;;;;;;;;26.50;23.50;;;;;12.43;72.79;101952.78;5061847;28;45492;-60
2022/03/15 08:30:18;;;;;;;;;24.25;20.50;;;;;12.46;72.84;101957.03;5061977;28;45375;-60
2022/03/15 08:32:44;;;;;;;;;30.50;28.25;;;;;12.46;72.93;101955.25;5061604;28;45441;-60
2022/03/15 08:35:10;;;;;;;;;32.00;28.25;;;;;12.47;72.93;101961.41;5061612;28;45298;-61
2022/03/15 08:37:36;;;;;;;;;27.25;23.75;;;;;12.49;72.92;101956.91;5061667;28;45356;-60
2022/03/15 08:40:03;;;;;;;;;23.50;19.50;;;;;12.52;72.97;101957.59;5053073;28;45392;-61
2022/03/15 08:42:28;;;;;;;;;27.75;22.50;;;;;12.52;72.80;101962.91;5045135;28;45438;-61
2022/03/15 08:44:54;;;;;;;;;21.25;20.50;;;;;12.53;72.97;101961.09;5041504;28;45719;-61
2022/03/15 08:47:20;;;;;;;;;25.00;23.25;;;;;12.52;72.72;101973.47;5040715;28;45320;-60
2022/03/15 08:49:45;;;;;;;;;35.00;28.50;;;;;12.52;72.91;101965.53;5041544;28;45335;-60
2022/03/15 08:52:11;;;;;;;;;30.50;23.00;;;;;12.50;72.86;101971.84;5041239;28;45309;-60
2022/03/15 08:54:37;;;;;;;;;25.25;22.50;;;;;12.51;72.99;101973.56;5040980;28;45380;-61
2022/03/15 08:57:04;;;;;;;;;27.50;21.25;;;;;12.52;73.02;101980.53;5023253;28;45475;-61
2022/03/15 08:59:30;;;;;;;;;22.50;20.25;;;;;12.53;72.91;101972.53;5041310;28;45567;-60
2022/03/15 09:01:56;;;;;;;;;25.25;24.00;;;;;12.55;73.06;101975.94;5040931;28;45334;-60
2022/03/15 09:04:22;;;;;;;;;26.50;22.25;;;;;12.58;73.02;101973.19;5040895;28;46415;-60
2022/03/15 09:06:48;;;;;;;;;30.75;25.50;;;;;12.62;73.04;101971.22;5041082;28;45527;-61
2022/03/15 09:09:18;;;;;;;;;29.00;25.50;;;;;12.63;73.07;101990.59;5041471;28;45257;-61
2022/03/15 09:11:44;;;;;;;;;26.00;23.00;;;;;12.58;73.17;101993.47;5040717;28;45486;-61
2022/03/15 09:14:10;;;;;;;;;32.25;25.00;;;;;12.58;73.09;101998.75;5040956;28;46216;-61
2022/03/15 09:16:36;;;;;;;;;26.25;23.25;;;;;12.61;73.17;101981.88;5040490;28;45423;-61
2022/03/15 09:19:01;;;;;;;;;27.00;23.25;;;;;12.60;73.19;101977.53;5041102;28;45211;-61
2022/03/15 09:21:27;;;;;;;;;28.50;25.50;;;;;12.63;73.03;101986.16;5040993;28;45460;-61
2022/03/15 09:23:55;;;;;;;;;27.75;24.25;;;;;12.65;72.94;101988.75;5041069;28;45254;-61
2022/03/15 09:26:21;;;;;;;;;24.75;24.75;;;;;12.64;73.13;101982.63;5043977;28;45344;-61
2022/03/15 09:28:47;;;;;;;;;27.75;23.50;;;;;12.68;72.97;101986.81;5061354;28;45435;-61
2022/03/15 09:31:13;;;;;;;;;27.75;24.50;;;;;12.66;72.94;101983.38;5060824;28;45466;-61
2022/03/15 09:33:38;;;;;;;;;28.25;24.75;;;;;12.68;72.86;101981.53;5060704;28;45401;-61
2022/03/15 09:36:05;;;;;;;;;33.50;25.75;;;;;12.71;73.05;101985.78;5060911;28;45356;-61
2022/03/15 09:38:31;;;;;;;;;25.00;24.50;;;;;12.73;72.85;101978.66;5061065;28;45216;-61
2022/03/15 09:41:03;;;;;;;;;27.50;25.25;;;;;12.79;72.81;101973.06;5044547;28;45426;-61
2022/03/15 09:43:45;;;;;;;;;25.50;23.50;;;;;12.84;72.82;101968.41;5044136;28;46116;-61
2022/03/15 09:46:12;;;;;;;;;26.25;25.25;;;;;12.88;72.59;101970.00;5040441;28;45352;-61
2022/03/15 09:48:40;;;;;;;;;23.50;21.25;;;;;12.91;72.75;101966.31;5040429;28;45368;-61
2022/03/15 09:51:09;;;;;;;;;22.75;22.50;;;;;12.96;72.57;101961.69;5040529;28;45399;-63
2022/03/15 09:53:37;;;;;;;;;27.50;25.00;;;;;12.99;72.57;101966.81;5040471;28;45380;-61
2022/03/15 09:56:03;;;;;;;;;33.75;28.75;;;;;13.03;72.80;101960.41;5040548;28;45327;-61
2022/03/15 09:58:29;;;;;;;;;36.50;29.25;;;;;13.05;72.56;101948.84;5040581;28;45332;-62
2022/03/15 10:00:57;;;;;;;;;31.25;27.25;;;;;13.10;72.59;101945.94;5040589;28;45364;-61
2022/03/15 10:03:23;;;;;;;;;37.75;33.25;;;;;13.18;72.57;101949.06;5039861;28;45444;-61
2022/03/15 10:05:49;;;;;;;;;38.50;34.00;;;;;13.20;72.47;101951.69;5040387;28;45368;-61
2022/03/15 10:08:17;;;;;;;;;26.50;22.00;;;;;13.13;72.13;101951.97;5040471;28;45293;-61
2022/03/15 10:10:43;;;;;;;;;37.25;32.00;;;;;13.11;72.27;101950.31;5040383;28;45418;-61
2022/03/15 10:13:09;;;;;;;;;39.75;33.00;;;;;13.08;72.39;101953.13;5040083;28;45423;-61
2022/03/15 10:15:35;;;;;;;;;36.50;30.50;;;;;13.05;72.38;101954.13;5040077;28;45257;-61
2022/03/15 10:18:04;;;;;;;;;35.00;31.75;;;;;13.03;72.22;101950.72;5039990;28;45306;-61
2022/03/15 10:20:42;;;;;;;;;35.25;30.00;;;;;13.02;72.18;101951.63;5040371;28;45471;-61
2022/03/15 10:23:11;;;;;;;;;32.50;29.00;;;;;13.00;72.38;101950.84;5040220;28;45963;-60
2022/03/15 10:25:41;;;;;;;;;29.25;26.00;;;;;13.00;72.52;101950.00;5043005;28;45182;-61
2022/03/15 10:28:08;;;;;;;;;38.50;34.00;;;;;12.97;72.56;101948.38;5061317;28;45339;-60
2022/03/15 10:30:36;;;;;;;;;28.50;26.50;;;;;12.91;72.63;101946.03;5063803;28;45492;-60
2022/03/15 10:33:03;;;;;;;;;27.25;25.50;;;;;12.90;72.92;101954.03;5063194;28;45297;-60
2022/03/15 10:35:39;;;;;;;;;28.50;25.75;;;;;12.84;72.77;101948.13;5063720;28;45370;-60
2022/03/15 10:38:06;;;;;;;;;34.25;29.00;;;;;12.83;72.62;101949.03;5063790;28;45418;-60
2022/03/15 10:40:44;;;;;;;;;35.75;31.00;;;;;12.79;73.03;101938.69;5050605;28;45618;-60
2022/03/15 10:43:28;;;;;;;;;30.50;27.75;;;;;12.75;73.28;101935.34;5046523;28;46300;-60
2022/03/15 10:45:57;;;;;;;;;34.75;32.75;;;;;12.78;73.12;101943.13;5043114;28;45324;-60
2022/03/15 10:48:30;;;;;;;;;28.00;25.00;;;;;12.78;73.19;101935.19;5042846;28;45351;-60
2022/03/15 10:51:13;;;;;;;;;32.00;29.25;;;;;12.76;73.38;101939.69;5043347;28;45543;-60
2022/03/15 10:53:47;;;;;;;;;29.00;26.00;;;;;12.80;73.16;101935.13;5042728;28;46210;-61
2022/03/15 10:56:20;;;;;;;;;34.00;29.50;;;;;12.80;73.30;101930.69;5039245;28;45317;-60
2022/03/15 10:59:00;;;;;;;;;29.50;27.25;;;;;12.81;73.16;101932.41;5047092;28;45435;-60
2022/03/15 11:01:28;;;;;;;;;31.00;28.00;;;;;12.82;73.09;101927.97;5042989;28;45329;-61
2022/03/15 11:04:07;;;;;;;;;29.50;26.50;;;;;12.82;73.08;101936.75;5042657;28;45282;-60
2022/03/15 11:06:47;;;;;;;;;33.75;30.50;;;;;12.83;73.04;101933.19;5025077;28;45342;-60
2022/03/15 11:09:29;;;;;;;;;33.00;32.00;;;;;12.88;72.77;101940.03;5043000;28;45269;-60
2022/03/15 11:12:06;;;;;;;;;44.25;36.00;;;;;12.91;73.06;101927.50;5042813;28;45245;-61
2022/03/15 11:14:51;;;;;;;;;38.50;34.25;;;;;12.95;72.70;101930.84;5042854;28;45341;-61